Time;durP1;ratioP1;P1;durP2;ratioP2;P2;SDS_P1;SDS_P2;PMS_P1;PMS_P2;Temp;Humidity;BMP_temperature;BMP_pressure;BME280_temperature;BME280_humidity;BME280_pressure;Samples;Min_cycle;Max_cycle;Signal;HPM_P1;HPM_P2
2023/08/31 00:05:11;;;;;;;0.82;0.45;;;;;;;18.34;65.84;99183.28;4389860;32;32888;-86
2023/08/31 00:07:39;;;;;;;0.52;0.52;;;;;;;18.23;66.36;99186.88;4386768;32;32238;-86
2023/08/31 00:10:11;;;;;;;0.37;0.37;;;;;;;18.35;66.10;99184.97;4374224;32;33976;-86
2023/08/31 00:13:18;;;;;;;0.30;0.20;;;;;;;18.48;64.95;99185.63;4400735;32;34728;-86
2023/08/31 00:16:02;;;;;;;0.65;0.65;;;;;;;18.42;65.35;99173.66;4390001;32;33916;-86
2023/08/31 00:18:30;;;;;;;0.70;0.70;;;;;;;18.48;65.59;99174.09;4386717;32;32748;-86
2023/08/31 00:20:58;;;;;;;0.22;0.22;;;;;;;18.47;65.85;99172.38;4386057;32;32647;-86
2023/08/31 00:23:26;;;;;;;0.43;0.43;;;;;;;18.51;65.80;99182.66;4389138;32;33864;-86
2023/08/31 00:25:53;;;;;;;0.40;0.40;;;;;;;18.62;65.33;99176.41;4401162;32;33434;-86
2023/08/31 00:28:21;;;;;;;0.35;0.35;;;;;;;18.55;65.59;99180.59;4398797;32;32718;-86
2023/08/31 00:30:49;;;;;;;0.30;0.30;;;;;;;18.40;66.44;99185.44;4401240;32;32599;-87
2023/08/31 00:33:22;;;;;;;0.15;0.15;;;;;;;18.43;66.86;99186.03;4387775;32;33077;-87
2023/08/31 00:36:18;;;;;;;0.60;0.60;;;;;;;18.46;66.75;99182.22;4399328;32;33595;-87
2023/08/31 00:38:47;;;;;;;1.08;0.95;;;;;;;18.40;67.28;99188.94;4376661;32;32799;-87
2023/08/31 00:41:15;;;;;;;0.10;0.10;;;;;;;18.43;67.16;99188.69;4390451;32;34496;-87
2023/08/31 00:43:44;;;;;;;3.42;0.85;;;;;;;18.56;66.96;99187.63;4387494;32;34915;-87
2023/08/31 00:46:12;;;;;;;0.52;0.40;;;;;;;18.61;66.52;99186.28;4377289;32;33993;-87
2023/08/31 00:48:40;;;;;;;1.02;0.65;;;;;;;18.68;66.31;99187.44;4382050;32;32276;-87
2023/08/31 00:51:10;;;;;;;2.60;0.52;;;;;;;18.77;65.74;99187.63;4401785;32;33887;-87
2023/08/31 00:53:37;;;;;;;3.03;0.65;;;;;;;18.81;65.32;99189.91;4389855;32;33421;-87
2023/08/31 00:56:06;;;;;;;2.33;2.08;;;;;;;18.73;65.41;99186.19;4388186;32;34023;-87
2023/08/31 00:58:33;;;;;;;0.82;0.82;;;;;;;18.61;66.06;99191.63;4399416;32;32734;-87
2023/08/31 01:01:24;;;;;;;0.10;0.10;;;;;;;18.61;66.29;99196.09;4401648;32;32631;-87
2023/08/31 01:04:07;;;;;;;0.55;0.55;;;;;;;18.73;65.41;99194.22;4410631;32;34051;-88
2023/08/31 01:07:00;;;;;;;0.30;0.30;;;;;;;18.49;66.93;99198.00;4389719;32;33192;-87
2023/08/31 01:09:39;;;;;;;0.55;0.55;;;;;;;18.51;66.62;99209.41;4413329;32;33775;-87
2023/08/31 01:12:15;;;;;;;1.00;1.00;;;;;;;18.65;66.35;99198.38;4402449;32;33353;-89
2023/08/31 01:14:59;;;;;;;0.90;0.90;;;;;;;18.53;66.55;99198.59;4380565;32;33914;-88
2023/08/31 01:17:53;;;;;;;1.33;1.25;;;;;;;18.56;66.04;99204.53;4399110;32;33826;-88
2023/08/31 01:20:53;;;;;;;2.22;0.93;;;;;;;18.68;65.36;99202.63;4390173;32;32201;-88
2023/08/31 01:23:21;;;;;;;0.57;0.50;;;;;;;18.65;65.97;99203.72;4399461;32;32099;-88
2023/08/31 01:25:49;;;;;;;1.50;1.12;;;;;;;18.72;65.65;99211.25;4376111;32;33342;-88
2023/08/31 01:28:30;;;;;;;2.22;1.25;;;;;;;18.81;65.31;99221.16;4385927;32;32226;-88
2023/08/31 01:31:04;;;;;;;6.65;1.42;;;;;;;18.68;65.53;99213.31;4375741;32;35122;-88
2023/08/31 01:33:31;;;;;;;0.82;0.57;;;;;;;18.72;65.24;99219.28;4384914;32;32796;-88
2023/08/31 01:36:22;;;;;;;2.28;1.33;;;;;;;19.00;64.24;99207.87;4362267;32;34082;-88
2023/08/31 01:39:11;;;;;;;0.70;0.70;;;;;;;18.84;64.39;99202.16;4382768;32;32143;-88
2023/08/31 01:41:40;;;;;;;0.52;0.52;;;;;;;18.88;64.67;99214.28;4388115;32;32595;-88
2023/08/31 01:44:08;;;;;;;0.60;0.60;;;;;;;18.84;64.73;99204.81;4376842;32;34231;-88
2023/08/31 01:46:41;;;;;;;12.37;2.53;;;;;;;18.85;64.33;99204.72;4384911;32;33377;-86
2023/08/31 01:49:14;;;;;;;0.15;0.15;;;;;;;18.77;64.89;99217.06;4374162;32;33122;-86
2023/08/31 01:51:41;;;;;;;1.55;1.12;;;;;;;18.82;64.60;99210.31;4386068;32;32671;-86
2023/08/31 01:54:09;;;;;;;1.05;0.45;;;;;;;18.77;64.95;99203.69;4398246;32;33724;-86
2023/08/31 01:56:38;;;;;;;1.45;1.30;;;;;;;18.83;64.86;99212.00;4387597;32;32844;-85
2023/08/31 01:59:06;;;;;;;0.30;0.30;;;;;;;18.86;64.94;99210.91;4410159;32;32544;-86
2023/08/31 02:01:34;;;;;;;0.05;0.05;;;;;;;18.93;64.33;99212.03;4387294;32;32929;-85
2023/08/31 02:04:02;;;;;;;4.47;2.83;;;;;;;18.71;65.05;99213.09;4386857;32;33566;-86
2023/08/31 02:06:30;;;;;;;0.32;0.32;;;;;;;18.81;65.16;99215.81;4373658;32;33538;-85
2023/08/31 02:08:57;;;;;;;0.93;0.68;;;;;;;18.90;64.80;99207.81;4385932;32;33201;-86
2023/08/31 02:11:25;;;;;;;0.68;0.68;;;;;;;18.83;64.84;99211.16;4387632;32;34247;-86
2023/08/31 02:13:54;;;;;;;1.75;1.42;;;;;;;18.85;64.76;99215.41;4386245;32;34073;-86
2023/08/31 02:16:25;;;;;;;0.88;0.77;;;;;;;18.81;65.04;99207.78;4393842;32;33956;-86
2023/08/31 02:18:55;;;;;;;1.25;0.50;;;;;;;18.66;65.39;99210.78;4385329;32;33087;-85
2023/08/31 02:21:23;;;;;;;0.55;0.55;;;;;;;18.77;65.35;99217.06;4399049;32;34697;-86
2023/08/31 02:23:53;;;;;;;8.10;2.50;;;;;;;18.76;65.34;99221.56;4374622;32;32870;-86
2023/08/31 02:26:22;;;;;;;0.77;0.50;;;;;;;18.70;65.52;99215.87;4399413;32;34003;-86
2023/08/31 02:28:49;;;;;;;0.68;0.68;;;;;;;18.78;65.11;99218.75;4388551;32;32504;-86
2023/08/31 02:31:18;;;;;;;0.22;0.22;;;;;;;18.77;65.29;99228.59;4399469;32;31060;-87
2023/08/31 02:33:47;;;;;;;1.60;1.15;;;;;;;18.86;64.58;99230.47;4385965;32;32909;-85
2023/08/31 02:36:14;;;;;;;1.40;1.27;;;;;;;18.79;64.98;99220.44;4399662;32;34652;-86
2023/08/31 02:38:43;;;;;;;0.65;0.55;;;;;;;18.81;64.88;99223.84;4388461;32;33990;-86
2023/08/31 02:41:13;;;;;;;0.20;0.20;;;;;;;18.84;64.66;99218.19;4402228;32;32102;-87
2023/08/31 02:43:40;;;;;;;0.57;0.57;;;;;;;18.84;64.62;99228.91;4387335;32;34503;-87
2023/08/31 02:46:10;;;;;;;1.62;1.10;;;;;;;18.84;64.35;99228.91;4391201;32;34037;-86
2023/08/31 02:48:38;;;;;;;1.33;0.60;;;;;;;18.71;64.72;99234.47;4401848;32;31908;-85
2023/08/31 02:51:10;;;;;;;1.00;0.75;;;;;;;18.68;65.01;99227.56;4386409;32;32745;-85
2023/08/31 02:53:38;;;;;;;0.30;0.30;;;;;;;18.64;65.13;99231.44;4388490;32;33648;-85
2023/08/31 02:56:06;;;;;;;0.28;0.28;;;;;;;18.57;65.51;99222.28;4399071;32;33055;-85
2023/08/31 02:58:33;;;;;;;0.90;0.73;;;;;;;18.61;65.48;99234.41;4387902;32;32105;-85
2023/08/31 03:01:12;;;;;;;0.30;0.30;;;;;;;18.63;65.23;99219.06;4374182;32;33797;-85
2023/08/31 03:03:42;;;;;;;0.60;0.60;;;;;;;18.61;65.39;99223.69;4373371;32;33268;-85
2023/08/31 03:06:10;;;;;;;0.62;0.62;;;;;;;18.58;65.24;99218.59;4383936;32;34462;-85
2023/08/31 03:08:38;;;;;;;0.47;0.45;;;;;;;18.67;64.99;99222.31;4374139;32;32728;-86
2023/08/31 03:13:48;;;;;;;0.65;0.40;;;;;;;18.51;64.99;99227.28;4398612;32;34567;-86
2023/08/31 03:16:16;;;;;;;0.20;0.20;;;;;;;18.55;64.87;99213.50;4398041;32;34814;-86
2023/08/31 03:18:43;;;;;;;1.35;0.70;;;;;;;18.67;64.41;99222.31;4398509;32;33557;-85
2023/08/31 03:21:12;;;;;;;1.15;0.85;;;;;;;18.60;64.61;99221.97;4402283;32;34200;-85
2023/08/31 03:23:44;;;;;;;0.98;0.98;;;;;;;18.47;65.04;99225.84;4402640;32;32975;-85
2023/08/31 03:26:12;;;;;;;0.37;0.37;;;;;;;18.54;64.76;99221.69;4375568;32;34304;-87
2023/08/31 03:28:40;;;;;;;0.37;0.37;;;;;;;18.34;65.48;99218.03;4389614;32;34464;-87
2023/08/31 03:31:08;;;;;;;1.95;1.20;;;;;;;18.50;65.05;99228.25;4377897;32;33741;-87
2023/08/31 03:33:36;;;;;;;0.40;0.40;;;;;;;18.52;64.76;99235.19;4387065;32;34146;-87
2023/08/31 03:36:04;;;;;;;0.20;0.20;;;;;;;18.51;64.83;99238.81;4389241;32;33057;-87
2023/08/31 03:38:37;;;;;;;0.62;0.62;;;;;;;18.44;64.98;99243.00;4403809;32;33154;-87
2023/08/31 03:41:05;;;;;;;0.85;0.85;;;;;;;18.46;64.96;99245.53;4390235;32;33326;-87
2023/08/31 03:43:33;;;;;;;0.30;0.30;;;;;;;18.31;65.65;99245.84;4373184;32;34051;-88
2023/08/31 03:46:13;;;;;;;2.83;0.40;;;;;;;18.47;64.98;99241.88;4375325;32;33070;-88
2023/08/31 03:48:41;;;;;;;1.35;1.15;;;;;;;18.33;65.01;99235.06;4376692;32;33637;-88
2023/08/31 03:51:59;;;;;;;1.55;0.50;;;;;;;18.34;65.02;99237.59;4376274;32;33474;-87
2023/08/31 03:54:27;;;;;;;1.87;1.17;;;;;;;18.28;65.20;99238.13;4382919;32;32724;-88
2023/08/31 04:00:13;;;;;;;0.20;0.20;;;;;;;18.26;65.15;99239.22;4381871;32;34609;-88
2023/08/31 04:05:59;;;;;;;1.10;1.05;;;;;;;18.06;65.66;99239.06;4400072;32;34723;-88
2023/08/31 04:08:28;;;;;;;1.02;1.02;;;;;;;18.12;65.86;99245.72;4396900;32;33960;-88
2023/08/31 04:10:56;;;;;;;0.52;0.52;;;;;;;18.18;65.24;99258.53;4367573;32;33192;-88
2023/08/31 04:13:34;;;;;;;0.65;0.65;;;;;;;18.12;65.56;99249.22;4373625;32;32413;-87
2023/08/31 04:16:04;;;;;;;1.25;1.15;;;;;;;18.12;65.18;99256.41;4396202;32;32936;-88
2023/08/31 04:18:31;;;;;;;0.30;0.30;;;;;;;17.99;65.74;99259.22;4389176;32;34135;-87
2023/08/31 04:21:02;;;;;;;0.20;0.20;;;;;;;18.00;65.93;99258.28;4368485;32;33818;-87
2023/08/31 04:23:30;;;;;;;0.37;0.37;;;;;;;18.16;65.66;99258.69;4374324;32;32808;-88
2023/08/31 04:25:57;;;;;;;0.73;0.47;;;;;;;18.13;65.66;99266.94;4373847;32;32892;-87
2023/08/31 04:28:27;;;;;;;0.10;0.10;;;;;;;18.08;65.99;99263.81;4373056;32;33808;-87
2023/08/31 04:34:55;;;;;;;0.30;0.30;;;;;;;18.27;65.50;99276.50;4376039;32;32860;-84
2023/08/31 04:37:31;;;;;;;0.45;0.45;;;;;;;18.19;66.18;99275.47;4401703;32;33976;-83
2023/08/31 04:40:00;;;;;;;0.08;0.08;;;;;;;18.27;65.83;99283.66;4384996;32;33742;-84
2023/08/31 04:42:29;;;;;;;0.20;0.20;;;;;;;18.43;64.87;99278.75;4389508;32;33986;-83
2023/08/31 04:44:57;;;;;;;1.60;0.98;;;;;;;18.33;65.09;99294.69;4391373;32;33305;-84
2023/08/31 04:47:32;;;;;;;0.60;0.60;;;;;;;18.40;64.90;99292.34;4387002;32;33645;-83
2023/08/31 04:50:03;;;;;;;0.75;0.65;;;;;;;18.34;65.62;99292.87;4387685;32;34639;-82
2023/08/31 04:52:32;;;;;;;0.10;0.10;;;;;;;18.50;64.71;99287.91;4379980;32;33961;-85
2023/08/31 04:55:07;;;;;;;0.40;0.40;;;;;;;18.59;64.39;99292.50;4399133;32;33753;-84
2023/08/31 04:57:35;;;;;;;0.20;0.20;;;;;;;18.59;64.32;99292.50;4403644;32;33181;-83
2023/08/31 05:00:04;;;;;;;0.95;0.95;;;;;;;18.71;64.23;99297.81;4374669;32;34579;-83
2023/08/31 05:02:32;;;;;;;0.25;0.20;;;;;;;18.57;64.82;99297.13;4386867;32;32989;-84
2023/08/31 05:05:00;;;;;;;3.22;0.40;;;;;;;18.65;64.68;99299.13;4399025;32;32917;-84
2023/08/31 05:07:27;;;;;;;0.20;0.20;;;;;;;18.54;65.14;99310.75;4414602;32;34240;-83
2023/08/31 05:09:56;;;;;;;0.80;0.43;;;;;;;18.62;65.35;99312.78;4400416;32;36598;-83
2023/08/31 05:12:24;;;;;;;0.98;0.93;;;;;;;18.79;64.95;99314.87;4388511;32;33944;-83
2023/08/31 05:14:51;;;;;;;1.33;0.70;;;;;;;18.83;64.68;99318.16;4401513;32;32291;-84
2023/08/31 05:17:19;;;;;;;0.20;0.20;;;;;;;18.97;64.63;99322.31;4401426;32;33325;-83
2023/08/31 05:19:47;;;;;;;1.65;1.05;;;;;;;19.08;64.02;99322.22;4391717;32;33279;-83
2023/08/31 05:22:27;;;;;;;0.40;0.40;;;;;;;19.35;62.98;99330.53;4396604;32;33483;-84
2023/08/31 05:25:14;;;;;;;0.80;0.80;;;;;;;19.43;62.60;99333.41;4390349;32;33476;-84
2023/08/31 05:27:42;;;;;;;0.43;0.20;;;;;;;19.41;62.52;99334.50;4392615;32;33940;-84
2023/08/31 05:30:10;;;;;;;0.17;0.17;;;;;;;19.39;62.34;99328.47;4383920;32;33792;-85
2023/08/31 05:32:37;;;;;;;0.50;0.10;;;;;;;19.38;62.33;99335.66;4386747;32;32672;-84
2023/08/31 05:35:06;;;;;;;0.68;0.68;;;;;;;19.62;61.94;99343.38;4397554;32;32999;-84
2023/08/31 05:37:35;;;;;;;0.82;0.65;;;;;;;18.98;64.49;99348.94;4372117;32;33148;-84
2023/08/31 05:40:10;;;;;;;0.15;0.15;;;;;;;19.51;62.30;99350.63;4386369;32;34677;-83
2023/08/31 05:42:38;;;;;;;0.47;0.47;;;;;;;19.13;63.97;99346.75;4389349;32;33910;-84
2023/08/31 05:45:06;;;;;;;0.60;0.60;;;;;;;19.31;63.16;99349.69;4389167;32;33811;-83
2023/08/31 05:47:34;;;;;;;0.75;0.60;;;;;;;19.48;62.20;99361.63;4387744;32;34559;-83
2023/08/31 05:50:04;;;;;;;0.40;0.40;;;;;;;19.61;62.30;99362.28;4398006;32;33818;-83
2023/08/31 05:52:31;;;;;;;0.73;0.50;;;;;;;19.54;62.34;99367.25;4385515;32;33681;-84
2023/08/31 05:54:59;;;;;;;19.17;1.75;;;;;;;19.56;62.27;99361.75;4400058;32;33377;-83
2023/08/31 05:57:30;;;;;;;1.80;0.43;;;;;;;19.98;61.28;99365.19;4386382;32;34250;-83
2023/08/31 05:59:57;;;;;;;1.95;0.88;;;;;;;19.75;62.71;99369.06;4386526;32;34291;-83
2023/08/31 06:02:57;;;;;;;0.40;0.40;;;;;;;19.94;62.78;99374.50;4388713;32;34372;-83
2023/08/31 06:06:57;;;;;;;0.65;0.50;;;;;;;20.21;61.57;99382.72;4396587;32;34290;-83
2023/08/31 06:09:29;;;;;;;3.10;1.33;;;;;;;20.49;61.23;99385.63;4357011;32;34403;-83
2023/08/31 06:11:57;;;;;;;0.75;0.20;;;;;;;20.05;60.86;99390.47;4331973;32;34620;-83
2023/08/31 06:14:24;;;;;;;0.45;0.45;;;;;;;20.39;59.65;99390.09;4375578;32;33504;-83
2023/08/31 06:16:52;;;;;;;0.70;0.65;;;;;;;20.21;59.19;99390.75;4393930;32;32484;-83
2023/08/31 06:19:20;;;;;;;0.55;0.55;;;;;;;20.10;60.69;99401.63;4390989;32;33861;-83
2023/08/31 06:21:48;;;;;;;5.75;1.62;;;;;;;20.35;59.73;99394.03;4390883;32;34770;-84
2023/08/31 06:24:15;;;;;;;0.70;0.50;;;;;;;20.52;58.52;99389.88;4395639;32;32752;-83
2023/08/31 06:26:43;;;;;;;0.10;0.10;;;;;;;20.37;59.01;99400.13;4379887;32;33343;-84
2023/08/31 06:29:11;;;;;;;0.17;0.17;;;;;;;20.43;59.08;99407.59;4369902;32;33281;-84
2023/08/31 06:31:39;;;;;;;1.37;0.68;;;;;;;20.78;57.85;99406.22;4376915;32;34727;-82
2023/08/31 06:34:07;;;;;;;0.13;0.10;;;;;;;20.54;58.44;99418.22;4377298;32;32837;-82
2023/08/31 06:36:35;;;;;;;17.92;0.77;;;;;;;20.52;58.19;99414.84;4393521;32;33449;-82
2023/08/31 06:39:04;;;;;;;0.10;0.10;;;;;;;20.48;58.19;99410.75;4367580;32;33269;-82
2023/08/31 06:41:32;;;;;;;1.12;0.65;;;;;;;20.43;58.66;99407.59;4395346;32;33811;-83
2023/08/31 06:44:00;;;;;;;0.70;0.60;;;;;;;20.83;57.73;99404.81;4393652;32;34866;-82
2023/08/31 06:46:28;;;;;;;0.43;0.43;;;;;;;20.51;58.53;99407.81;4376236;32;32839;-83
2023/08/31 06:48:56;;;;;;;0.10;0.10;;;;;;;20.43;59.07;99407.59;4385374;32;33816;-83
2023/08/31 06:51:24;;;;;;;0.28;0.28;;;;;;;20.58;59.24;99411.59;4402911;32;34204;-83
2023/08/31 06:53:52;;;;;;;0.03;0.03;;;;;;;20.65;58.82;99412.75;4397914;32;32912;-82
2023/08/31 06:56:20;;;;;;;0.40;0.40;;;;;;;20.74;58.52;99410.19;4377017;32;33747;-83
2023/08/31 06:58:47;;;;;;;0.65;0.13;;;;;;;20.83;58.27;99418.22;4384235;32;34386;-83
2023/08/31 07:01:15;;;;;;;1.52;0.37;;;;;;;21.20;58.19;99423.72;4398620;32;33448;-82
2023/08/31 07:03:55;;;;;;;1.12;0.62;;;;;;;21.22;57.77;99424.44;4396518;32;34271;-83
2023/08/31 07:06:36;;;;;;;;;;;;;;;21.17;58.05;99428.50;4383076;32;32547;-82
2023/08/31 07:09:06;;;;;;;2.15;0.93;;;;;;;21.14;58.11;99440.41;4393777;32;34303;-84
2023/08/31 07:11:34;;;;;;;0.62;0.62;;;;;;;21.00;57.44;99435.47;4393584;32;35149;-83
2023/08/31 07:14:01;;;;;;;0.85;0.70;;;;;;;21.04;58.22;99442.25;4374003;32;33644;-82
2023/08/31 07:16:29;;;;;;;0.22;0.20;;;;;;;21.01;58.07;99450.59;4383523;32;32381;-82
2023/08/31 07:19:00;;;;;;;0.52;0.52;;;;;;;21.44;56.73;99441.22;4382729;32;33558;-83
2023/08/31 07:21:28;;;;;;;1.10;1.00;;;;;;;21.03;58.58;99448.62;4381245;32;34322;-83
2023/08/31 07:23:58;;;;;;;0.85;0.55;;;;;;;21.64;57.06;99437.47;4400479;32;33837;-82
2023/08/31 07:26:26;;;;;;;0.73;0.73;;;;;;;21.67;56.96;99439.88;4393060;32;32917;-83
2023/08/31 07:28:56;;;;;;;0.30;0.17;;;;;;;21.69;57.68;99445.09;4391102;32;32941;-82
2023/08/31 07:31:26;;;;;;;2.53;0.65;;;;;;;21.65;57.61;99449.09;4396304;32;33869;-83
2023/08/31 07:33:54;;;;;;;0.00;0.00;;;;;;;21.78;56.30;99449.59;4397664;32;33855;-83
2023/08/31 07:36:22;;;;;;;0.50;0.40;;;;;;;21.95;55.56;99450.69;4391477;32;33130;-82
2023/08/31 07:38:49;;;;;;;0.45;0.32;;;;;;;22.20;55.80;99450.00;4394298;32;33633;-82
2023/08/31 07:41:17;;;;;;;0.90;0.70;;;;;;;22.01;54.99;99450.06;4379001;32;33487;-83
2023/08/31 07:43:45;;;;;;;0.30;0.30;;;;;;;22.23;55.31;99456.94;4378060;32;32733;-83
2023/08/31 07:46:18;;;;;;;0.62;0.62;;;;;;;22.28;55.55;99461.88;4380485;32;32916;-83
2023/08/31 07:48:47;;;;;;;1.00;0.95;;;;;;;22.45;54.30;99458.34;4399750;32;33802;-82
2023/08/31 07:51:14;;;;;;;0.47;0.47;;;;;;;22.46;54.57;99457.38;4373763;32;34238;-83
2023/08/31 07:53:42;;;;;;;0.35;0.30;;;;;;;22.52;54.86;99459.47;4386208;32;33344;-83
2023/08/31 07:56:13;;;;;;;0.52;0.52;;;;;;;22.64;53.37;99455.53;4379811;32;33079;-83
2023/08/31 07:58:40;;;;;;;0.35;0.30;;;;;;;22.79;53.84;99450.50;4398849;32;34606;-82
2023/08/31 08:01:08;;;;;;;0.43;0.43;;;;;;;22.48;53.51;99456.22;4398509;32;34324;-82
2023/08/31 08:03:36;;;;;;;0.20;0.20;;;;;;;22.65;53.98;99459.09;4380658;32;33265;-82
2023/08/31 08:06:04;;;;;;;0.40;0.40;;;;;;;22.89;53.11;99455.84;4371727;32;33321;-83
2023/08/31 08:08:32;;;;;;;0.37;0.37;;;;;;;22.87;53.30;99468.56;4382531;32;34553;-83
2023/08/31 08:11:00;;;;;;;0.75;0.75;;;;;;;22.90;52.18;99468.28;4384026;32;34134;-82
2023/08/31 08:13:27;;;;;;;0.40;0.40;;;;;;;23.09;51.57;99468.13;4383892;32;33901;-83
2023/08/31 08:15:55;;;;;;;0.20;0.20;;;;;;;22.86;52.26;99466.87;4389023;32;33028;-83
2023/08/31 08:18:23;;;;;;;0.88;0.70;;;;;;;23.49;51.47;99474.81;4363932;32;33886;-83
2023/08/31 08:20:51;;;;;;;0.28;0.25;;;;;;;23.60;51.33;99471.03;4397849;32;32642;-82
2023/08/31 08:23:19;;;;;;;1.70;0.52;;;;;;;23.60;51.92;99477.28;4396322;32;34541;-82
2023/08/31 08:25:47;;;;;;;2.25;1.25;;;;;;;23.67;49.79;99472.97;4376772;32;33428;-83
2023/08/31 08:28:15;;;;;;;0.30;0.30;;;;;;;23.64;50.71;99472.44;4385362;32;34512;-82
2023/08/31 08:30:43;;;;;;;0.10;0.10;;;;;;;23.41;51.15;99480.19;4379173;32;34402;-82
2023/08/31 08:33:11;;;;;;;5.45;0.20;;;;;;;23.44;51.11;99477.16;4368049;32;34310;-82
2023/08/31 08:35:40;;;;;;;0.75;0.75;;;;;;;23.75;49.93;99473.03;4384216;32;33571;-82
2023/08/31 08:38:08;;;;;;;0.20;0.20;;;;;;;24.18;48.72;99476.63;4373341;32;32882;-82
2023/08/31 08:40:41;;;;;;;0.20;0.17;;;;;;;23.74;48.50;99474.03;4387233;32;33212;-82
2023/08/31 08:43:11;;;;;;;0.30;0.30;;;;;;;23.54;49.56;99482.44;4385297;32;33416;-83
2023/08/31 08:45:41;;;;;;;1.75;1.05;;;;;;;23.71;49.36;99487.81;4395368;32;33315;-82
2023/08/31 08:48:09;;;;;;;0.40;0.40;;;;;;;24.07;48.26;99478.72;4378658;32;33780;-82
2023/08/31 08:50:37;;;;;;;0.45;0.45;;;;;;;24.32;49.45;99483.25;4366843;32;34398;-82
2023/08/31 08:53:05;;;;;;;5.95;1.67;;;;;;;24.61;47.59;99488.25;4400777;32;34693;-83
2023/08/31 08:55:33;;;;;;;0.20;0.20;;;;;;;24.82;48.08;99486.94;4380750;32;33741;-82
2023/08/31 08:58:03;;;;;;;0.85;0.62;;;;;;;24.93;46.48;99487.50;4389142;32;33932;-82
2023/08/31 09:00:31;;;;;;;0.30;0.30;;;;;;;24.43;47.34;99501.88;4386467;32;33816;-82
2023/08/31 09:03:05;;;;;;;0.43;0.40;;;;;;;24.91;45.41;99499.47;4397969;32;33404;-82
2023/08/31 09:05:33;;;;;;;1.90;0.40;;;;;;;25.07;44.57;99504.03;4388235;32;32779;-82
2023/08/31 09:08:15;;;;;;;0.00;0.00;;;;;;;25.36;42.91;99493.62;4371336;32;32514;-82
2023/08/31 09:10:44;;;;;;;0.20;0.20;;;;;;;25.36;43.27;99481.97;4379490;32;32258;-82
2023/08/31 09:13:15;;;;;;;0.45;0.43;;;;;;;25.29;42.79;99498.00;4400231;32;33946;-82
2023/08/31 09:15:44;;;;;;;0.20;0.20;;;;;;;25.48;42.10;99504.94;4384374;32;32720;-82
2023/08/31 09:18:14;;;;;;;0.20;0.20;;;;;;;25.52;41.21;99503.56;4391028;32;32899;-82
2023/08/31 09:20:48;;;;;;;0.20;0.15;;;;;;;25.27;43.48;99516.25;4395204;32;32871;-83
2023/08/31 09:23:17;;;;;;;0.10;0.10;;;;;;;25.55;43.45;99503.25;4376836;32;32752;-83
2023/08/31 09:25:48;;;;;;;0.20;0.05;;;;;;;25.24;42.93;99512.03;4388614;32;31884;-82
2023/08/31 09:28:17;;;;;;;;;;;;;;;25.90;42.60;99504.72;4379346;32;33876;-83
2023/08/31 09:30:50;;;;;;;0.00;0.00;;;;;;;25.89;42.67;99504.91;4375450;32;33920;-82
2023/08/31 09:33:20;;;;;;;0.35;0.17;;;;;;;25.95;40.90;99520.44;4382822;32;34172;-82
2023/08/31 09:35:56;;;;;;;0.10;0.10;;;;;;;25.92;42.08;99515.38;4370275;32;32251;-82
2023/08/31 09:38:24;;;;;;;0.50;0.50;;;;;;;25.87;42.86;99507.78;4374573;32;32356;-82
2023/08/31 09:40:52;;;;;;;0.08;0.08;;;;;;;25.92;42.01;99513.53;4392515;32;32765;-82
2023/08/31 09:43:23;;;;;;;0.30;0.30;;;;;;;25.94;41.48;99508.78;4386294;32;32463;-82
2023/08/31 09:45:52;;;;;;;0.25;0.25;;;;;;;25.81;40.13;99518.44;4372422;32;32723;-82
2023/08/31 09:48:20;;;;;;;0.10;0.10;;;;;;;25.99;40.87;99516.38;4382954;32;33572;-82
2023/08/31 09:50:48;;;;;;;0.62;0.45;;;;;;;26.27;40.70;99511.38;4394191;32;34441;-82
2023/08/31 09:53:17;;;;;;;0.55;0.37;;;;;;;26.22;40.68;99527.31;4393157;32;32440;-84
2023/08/31 09:55:47;;;;;;;0.60;0.32;;;;;;;26.15;39.76;99524.44;4395778;32;33013;-82
2023/08/31 09:58:20;;;;;;;0.43;0.43;;;;;;;26.05;39.53;99529.22;4401593;32;33401;-82
2023/08/31 10:00:50;;;;;;;0.10;0.10;;;;;;;26.17;41.24;99524.28;4391514;32;34488;-82
2023/08/31 10:03:20;;;;;;;0.40;0.40;;;;;;;26.54;39.64;99518.25;4395510;32;34190;-82
2023/08/31 10:05:49;;;;;;;0.10;0.10;;;;;;;26.42;40.77;99527.75;4398697;32;32768;-83
2023/08/31 10:08:18;;;;;;;0.40;0.40;;;;;;;25.96;41.16;99536.50;4385968;32;32976;-82
2023/08/31 10:10:53;;;;;;;1.75;0.98;;;;;;;25.77;40.67;99536.87;4390392;32;34652;-82
2023/08/31 10:13:21;;;;;;;0.22;0.22;;;;;;;25.49;41.86;99545.31;4390403;32;33271;-82
2023/08/31 10:15:50;;;;;;;0.65;0.62;;;;;;;25.51;41.13;99545.16;4380886;32;32617;-82
2023/08/31 10:18:17;;;;;;;1.67;0.40;;;;;;;25.58;41.70;99546.13;4395522;32;32714;-82
2023/08/31 10:20:48;;;;;;;0.20;0.20;;;;;;;25.95;42.20;99547.50;4389372;32;32378;-82
2023/08/31 10:23:15;;;;;;;0.35;0.30;;;;;;;25.88;41.14;99551.91;4384010;32;33463;-82
2023/08/31 10:25:50;;;;;;;0.47;0.47;;;;;;;25.76;42.37;99541.44;4391767;32;32386;-83
2023/08/31 10:28:18;;;;;;;0.40;0.35;;;;;;;25.48;42.78;99550.87;4406918;32;32850;-82
2023/08/31 10:31:05;;;;;;;0.40;0.40;;;;;;;25.43;43.51;99554.09;4404649;32;34429;-82
2023/08/31 10:33:44;;;;;;;0.52;0.52;;;;;;;25.96;43.80;99550.00;4396264;32;33939;-82
2023/08/31 10:36:17;;;;;;;0.20;0.20;;;;;;;25.79;42.58;99554.62;4394760;32;33304;-83
2023/08/31 10:38:58;;;;;;;0.15;0.10;;;;;;;25.66;43.20;99559.66;4378599;32;33575;-82
2023/08/31 10:41:33;;;;;;;0.25;0.25;;;;;;;25.83;42.62;99563.25;4371385;32;33393;-82
2023/08/31 10:44:02;;;;;;;0.22;0.22;;;;;;;25.36;41.63;99568.47;4391798;32;33788;-82
2023/08/31 10:46:44;;;;;;;0.10;0.10;;;;;;;25.34;41.42;99581.28;4383002;32;34138;-82
2023/08/31 10:49:14;;;;;;;0.15;0.15;;;;;;;25.12;41.30;99570.12;4358436;32;32696;-82
2023/08/31 10:51:49;;;;;;;0.90;0.45;;;;;;;24.93;42.24;99573.91;4377574;32;32638;-82
2023/08/31 10:54:31;;;;;;;0.10;0.10;;;;;;;24.96;42.08;99572.72;4384220;32;34316;-82
2023/08/31 10:57:08;;;;;;;0.03;0.03;;;;;;;25.15;41.41;99569.75;4388204;32;31821;-82
2023/08/31 10:59:48;;;;;;;0.10;0.00;;;;;;;24.94;41.35;99569.34;4385056;32;32513;-82
2023/08/31 11:02:38;;;;;;;1.77;0.73;;;;;;;25.08;41.36;99576.00;4373309;32;34211;-82
2023/08/31 11:05:11;;;;;;;0.20;0.13;;;;;;;24.96;42.62;99575.44;4393676;32;32878;-82
2023/08/31 11:07:49;;;;;;;0.10;0.10;;;;;;;24.93;42.11;99581.19;4392370;32;32624;-82
2023/08/31 11:10:23;;;;;;;0.57;0.10;;;;;;;24.91;42.62;99586.72;4372542;32;33370;-82
2023/08/31 11:12:54;;;;;;;0.45;0.45;;;;;;;25.36;41.40;99582.81;4366448;32;32560;-82
2023/08/31 11:15:25;;;;;;;0.00;0.00;;;;;;;25.40;42.67;99591.41;4367897;32;32467;-82
2023/08/31 11:17:54;;;;;;;0.62;0.62;;;;;;;25.84;43.29;99589.28;4386139;32;33062;-82
2023/08/31 11:20:27;;;;;;;0.10;0.00;;;;;;;25.96;41.14;99579.78;4372083;32;32817;-82
2023/08/31 11:22:55;;;;;;;0.20;0.20;;;;;;;25.75;42.25;99595.66;4379007;32;33266;-82
2023/08/31 11:25:24;;;;;;;1.90;0.43;;;;;;;25.63;40.65;99592.44;4372296;32;33793;-82
2023/08/31 11:28:01;;;;;;;1.45;0.75;;;;;;;25.68;41.44;99594.63;4378107;32;32815;-82
2023/08/31 11:30:33;;;;;;;0.80;0.57;;;;;;;26.25;41.72;99587.34;4383201;32;32340;-82
2023/08/31 11:33:07;;;;;;;0.00;0.00;;;;;;;26.19;41.20;99596.16;4371775;32;33367;-82
2023/08/31 11:35:43;;;;;;;3.28;0.52;;;;;;;25.99;41.25;99578.59;4388163;32;33137;-82
2023/08/31 11:38:12;;;;;;;0.70;0.37;;;;;;;26.25;41.02;99589.19;4387526;32;32431;-82
2023/08/31 11:40:41;;;;;;;0.20;0.20;;;;;;;26.14;40.42;99590.41;4388238;32;34138;-82
2023/08/31 11:43:08;;;;;;;0.68;0.45;;;;;;;26.25;40.47;99589.19;4391242;32;34328;-82
2023/08/31 11:45:38;;;;;;;0.00;0.00;;;;;;;26.72;40.60;99582.97;4407644;32;33473;-82
2023/08/31 11:48:06;;;;;;;0.25;0.25;;;;;;;26.69;38.55;99578.78;4374486;32;33550;-82
2023/08/31 11:50:34;;;;;;;0.10;0.10;;;;;;;26.79;38.39;99582.09;4392769;32;32451;-82
2023/08/31 11:53:02;;;;;;;0.62;0.30;;;;;;;26.70;39.09;99577.75;4388875;32;33057;-82
2023/08/31 11:55:33;;;;;;;0.85;0.70;;;;;;;26.99;39.10;99576.25;4408059;32;33332;-82
2023/08/31 11:58:00;;;;;;;0.65;0.17;;;;;;;26.61;40.08;99578.78;4378694;32;31539;-82
2023/08/31 12:00:28;;;;;;;0.55;0.55;;;;;;;26.47;40.46;99579.53;4380568;32;32491;-82
2023/08/31 12:02:57;;;;;;;0.52;0.30;;;;;;;26.94;38.86;99578.66;4392143;32;32979;-82
2023/08/31 12:05:26;;;;;;;0.25;0.25;;;;;;;26.94;38.67;99567.81;4395915;32;36035;-83
2023/08/31 12:07:55;;;;;;;2.47;0.85;;;;;;;27.29;38.23;99574.56;4393296;32;32499;-82
2023/08/31 12:10:26;;;;;;;0.10;0.10;;;;;;;27.00;38.38;99577.91;4379863;32;32376;-82